createdAt,value
2023-04-15T00:02:21.977Z,100945.09
2023-04-15T00:04:48.751Z,100938.84
2023-04-15T00:07:16.283Z,100938.28
2023-04-15T00:09:43.024Z,100933.94
2023-04-15T00:12:09.682Z,100938.78
2023-04-15T00:14:36.930Z,100934.72
2023-04-15T00:17:04.699Z,100944.97
2023-04-15T00:19:32.472Z,100943.00
2023-04-15T00:22:16.169Z,100937.03
2023-04-15T00:24:55.673Z,100938.09
2023-04-15T00:27:23.159Z,100936.44
2023-04-15T00:29:59.773Z,100935.16
2023-04-15T00:32:27.299Z,100935.16
2023-04-15T00:35:22.572Z,100938.66
2023-04-15T00:37:50.031Z,100946.44
2023-04-15T00:40:18.789Z,100948.59
2023-04-15T00:42:46.239Z,100926.97
2023-04-15T00:45:19.980Z,100936.97
2023-04-15T00:47:46.543Z,100935.34
2023-04-15T00:50:21.374Z,100948.28
2023-04-15T00:52:47.745Z,100949.91
2023-04-15T00:55:15.805Z,100944.50
2023-04-15T00:57:44.383Z,100949.28
2023-04-15T01:00:12.139Z,100948.69
2023-04-15T01:02:42.745Z,100947.56
2023-04-15T01:05:27.100Z,100951.81
2023-04-15T01:07:53.500Z,100947.16
2023-04-15T01:10:19.985Z,100944.13
2023-04-15T01:12:55.614Z,100948.41
2023-04-15T01:15:24.156Z,100949.47
2023-04-15T01:18:18.260Z,100944.06
2023-04-15T01:20:58.181Z,100950.75
2023-04-15T01:23:24.747Z,100949.94
2023-04-15T01:25:53.461Z,100949.13
2023-04-15T01:28:28.390Z,100941.78
2023-04-15T01:31:14.239Z,100945.28
2023-04-15T01:33:42.622Z,100953.06
2023-04-15T01:36:40.174Z,100948.16
2023-04-15T01:39:06.658Z,100951.91
2023-04-15T01:41:33.127Z,100946.25
2023-04-15T01:43:59.507Z,100952.50
2023-04-15T01:46:38.355Z,100950.03
2023-04-15T01:49:19.067Z,100948.66
2023-04-15T01:51:52.859Z,100949.13
2023-04-15T01:54:19.281Z,100948.34
2023-04-15T01:56:52.097Z,100946.13
2023-04-15T01:59:18.840Z,100949.88
2023-04-15T02:01:45.399Z,100951.75
2023-04-15T02:04:17.294Z,100950.13
2023-04-15T02:06:44.840Z,100948.97
2023-04-15T02:09:11.250Z,100949.22
2023-04-15T02:11:48.934Z,100954.63
2023-04-15T02:14:36.009Z,100957.81
2023-04-15T02:17:08.334Z,100959.94
2023-04-15T02:19:35.679Z,100954.19
2023-04-15T02:22:02.187Z,100952.56
2023-04-15T02:24:31.215Z,100955.84
2023-04-15T02:26:57.703Z,100960.41
2023-04-15T02:29:37.474Z,100967.09
2023-04-15T02:32:07.507Z,100963.03
2023-04-15T02:34:34.032Z,100965.63
2023-04-15T02:37:56.170Z,100975.59
2023-04-15T02:40:22.806Z,100976.44
2023-04-15T02:42:50.303Z,100982.03
2023-04-15T02:45:20.997Z,100985.22
2023-04-15T02:47:47.553Z,100982.22
2023-04-15T02:50:16.615Z,100986.69
2023-04-15T02:52:53.321Z,100986.34
2023-04-15T02:55:33.269Z,100988.72
2023-04-15T02:58:00.850Z,100997.28
2023-04-15T03:00:32.477Z,100993.44
2023-04-15T03:03:06.526Z,100999.91
2023-04-15T03:05:33.221Z,101000.38
2023-04-15T03:08:01.356Z,101006.00
2023-04-15T03:10:28.028Z,101007.03
2023-04-15T03:12:54.411Z,101008.34
2023-04-15T03:15:21.213Z,101005.09
2023-04-15T03:17:49.514Z,101010.47
2023-04-15T03:20:17.071Z,101015.88
2023-04-15T03:22:43.669Z,101010.94
2023-04-15T03:25:14.305Z,101017.16
2023-04-15T03:27:41.784Z,101005.09
2023-04-15T03:30:09.058Z,101010.31
2023-04-15T03:32:35.713Z,101001.44
2023-04-15T03:35:08.281Z,101009.53
2023-04-15T03:37:34.724Z,101013.00
2023-04-15T03:40:01.491Z,101008.47
2023-04-15T03:42:31.872Z,101016.78
2023-04-15T03:44:58.264Z,101016.44
2023-04-15T03:47:24.739Z,101022.31
2023-04-15T03:49:51.385Z,101029.81
2023-04-15T03:52:23.900Z,101032.41
2023-04-15T03:54:50.288Z,101028.56
2023-04-15T03:57:17.805Z,101038.16
2023-04-15T03:59:44.323Z,101041.56
2023-04-15T04:02:17.325Z,101041.81
2023-04-15T04:04:44.023Z,101043.91
2023-04-15T04:07:16.690Z,101051.16
2023-04-15T04:10:03.857Z,101052.09
2023-04-15T04:12:35.478Z,101055.31
2023-04-15T04:15:20.586Z,101063.03
2023-04-15T04:18:11.783Z,101060.47
2023-04-15T04:20:38.436Z,101059.50
2023-04-15T04:23:04.976Z,101061.03
2023-04-15T04:25:31.478Z,101074.97
2023-04-15T04:27:58.035Z,101075.44
2023-04-15T04:30:24.766Z,101075.91
2023-04-15T04:32:51.778Z,101078.84
2023-04-15T04:35:47.195Z,101085.03
2023-04-15T04:38:13.660Z,101081.28
2023-04-15T04:40:40.384Z,101097.44
2023-04-15T04:43:16.129Z,101100.59
2023-04-15T04:45:42.990Z,101097.69
2023-04-15T04:48:10.693Z,101102.47
2023-04-15T04:50:37.301Z,101113.25
2023-04-15T04:53:03.884Z,101107.25
2023-04-15T04:55:32.437Z,101120.13
2023-04-15T04:58:09.983Z,101116.59
2023-04-15T05:00:43.650Z,101126.91
2023-04-15T05:03:16.344Z,101119.88
2023-04-15T05:05:53.248Z,101127.34
2023-04-15T05:08:19.623Z,101130.88
2023-04-15T05:10:46.336Z,101139.19
2023-04-15T05:13:27.135Z,101143.97
2023-04-15T05:15:53.617Z,101151.00
2023-04-15T05:18:21.220Z,101146.91
2023-04-15T05:20:49.966Z,101149.59
2023-04-15T05:23:17.800Z,101154.75
2023-04-15T05:25:44.352Z,101155.31
2023-04-15T05:28:23.946Z,101166.22
2023-04-15T05:30:50.526Z,101160.41
2023-04-15T05:33:42.536Z,101170.84
2023-04-15T05:36:09.155Z,101178.00
2023-04-15T05:38:41.003Z,101185.28
2023-04-15T05:41:10.547Z,101191.84
2023-04-15T05:43:37.011Z,101187.63
2023-04-15T05:46:12.671Z,101197.47
2023-04-15T05:48:43.410Z,101195.97
2023-04-15T05:51:11.295Z,101201.69
2023-04-15T05:53:37.787Z,101205.22
2023-04-15T05:56:04.645Z,101209.31
2023-04-15T05:58:31.084Z,101213.19
2023-04-15T06:00:57.649Z,101203.00
2023-04-15T06:03:24.303Z,101211.66
2023-04-15T06:05:50.988Z,101214.13
2023-04-15T06:08:29.855Z,101220.34
2023-04-15T06:10:56.523Z,101224.69
2023-04-15T06:13:22.978Z,101231.50
2023-04-15T06:15:49.603Z,101234.78
2023-04-15T06:18:16.110Z,101237.22
2023-04-15T06:20:54.882Z,101239.69
2023-04-15T06:23:21.451Z,101249.41
2023-04-15T06:25:48.229Z,101247.44
2023-04-15T06:28:14.669Z,101246.50
2023-04-15T06:30:41.212Z,101253.41
2023-04-15T06:33:07.671Z,101259.72
2023-04-15T06:35:34.350Z,101260.66
2023-04-15T06:38:00.797Z,101263.47
2023-04-15T06:40:27.872Z,101266.28
2023-04-15T06:42:55.704Z,101278.00
2023-04-15T06:45:22.637Z,101280.00
2023-04-15T06:47:49.094Z,101277.16
2023-04-15T06:50:17.717Z,101287.00
2023-04-15T06:52:44.214Z,101291.22
2023-04-15T06:55:12.750Z,101294.97
2023-04-15T06:58:01.171Z,101302.22
2023-04-15T07:00:28.634Z,101300.78
2023-04-15T07:02:55.812Z,101308.50
2023-04-15T07:05:32.513Z,101310.31
2023-04-15T07:07:59.018Z,101314.28
2023-04-15T07:10:25.794Z,101319.88
2023-04-15T07:12:52.629Z,101322.69
2023-04-15T07:15:21.213Z,101327.13
2023-04-15T07:17:47.803Z,101325.34
2023-04-15T07:20:14.655Z,101331.66
2023-04-15T07:22:41.234Z,101335.50
2023-04-15T07:25:09.074Z,101334.22
2023-04-15T07:27:35.633Z,101340.63
2023-04-15T07:30:02.554Z,101339.16
2023-04-15T07:32:29.268Z,101347.47
2023-04-15T07:34:55.792Z,101348.78
2023-04-15T07:37:24.468Z,101344.06
2023-04-15T07:39:55.295Z,101345.63
2023-04-15T07:42:35.109Z,101352.59
2023-04-15T07:45:01.669Z,101358.97
2023-04-15T07:47:28.257Z,101363.72
2023-04-15T07:49:54.664Z,101361.94
2023-04-15T07:52:21.088Z,101355.28
2023-04-15T07:54:50.490Z,101365.44
2023-04-15T07:57:17.607Z,101373.94
2023-04-15T07:59:45.067Z,101372.44
2023-04-15T08:02:12.069Z,101370.38
2023-04-15T08:04:38.814Z,101380.72
2023-04-15T08:07:06.178Z,101373.22
2023-04-15T08:09:36.090Z,101374.41
2023-04-15T08:12:02.673Z,101379.88
2023-04-15T08:14:29.437Z,101394.09
2023-04-15T08:16:55.905Z,101396.97
2023-04-15T08:19:22.989Z,101398.09
2023-04-15T08:21:49.742Z,101394.34
2023-04-15T08:24:16.206Z,101399.09
2023-04-15T08:26:42.762Z,101398.38
2023-04-15T08:29:09.340Z,101389.25
2023-04-15T08:31:35.928Z,101393.66
2023-04-15T08:34:02.471Z,101398.06
2023-04-15T08:36:37.301Z,101402.41
2023-04-15T08:39:04.945Z,101408.94
2023-04-15T08:41:40.671Z,101405.69
2023-04-15T08:44:07.398Z,101411.34
2023-04-15T08:46:34.870Z,101424.03
2023-04-15T08:49:05.109Z,101430.31
2023-04-15T08:51:33.815Z,101437.63
2023-04-15T08:54:01.572Z,101436.25
2023-04-15T08:56:28.173Z,101448.47
2023-04-15T08:58:55.286Z,101446.97
2023-04-15T09:01:22.748Z,101445.41
2023-04-15T09:03:50.745Z,101451.72
2023-04-15T09:06:25.619Z,101454.19
2023-04-15T09:08:52.986Z,101457.28
2023-04-15T09:11:20.385Z,101458.66
2023-04-15T09:13:46.858Z,101465.13
2023-04-15T09:16:19.566Z,101462.47
2023-04-15T09:18:46.121Z,101471.16
2023-04-15T09:21:15.471Z,101464.44
2023-04-15T09:23:55.952Z,101478.94
2023-04-15T09:26:35.734Z,101480.59
2023-04-15T09:29:07.459Z,101485.69
2023-04-15T09:31:33.912Z,101488.41
2023-04-15T09:34:00.614Z,101490.31
2023-04-15T09:36:29.793Z,101487.63
2023-04-15T09:39:00.536Z,101487.09
2023-04-15T09:41:28.586Z,101497.94
2023-04-15T09:43:55.139Z,101494.41
2023-04-15T09:46:41.180Z,101491.16
2023-04-15T09:49:08.956Z,101498.22
2023-04-15T09:51:35.775Z,101495.75
2023-04-15T09:54:02.516Z,101495.19
2023-04-15T09:56:37.801Z,101494.69
2023-04-15T09:59:09.451Z,101503.91
2023-04-15T10:01:41.083Z,101509.31
2023-04-15T10:04:09.088Z,101503.38
2023-04-15T10:06:36.362Z,101510.03
2023-04-15T10:09:03.261Z,101517.97
2023-04-15T10:11:35.096Z,101521.84
2023-04-15T10:14:02.229Z,101518.06
2023-04-15T10:16:29.059Z,101506.72
2023-04-15T10:18:57.298Z,101513.53
2023-04-15T10:21:24.660Z,101517.88
2023-04-15T10:23:51.445Z,101520.03
2023-04-15T10:26:17.963Z,101516.22
2023-04-15T10:28:47.328Z,101526.06
2023-04-15T10:31:20.088Z,101514.63
2023-04-15T10:34:06.694Z,101515.19
2023-04-15T10:36:34.313Z,101519.56
2023-04-15T10:39:01.420Z,101521.25
2023-04-15T10:41:31.275Z,101523.44
2023-04-15T10:44:05.027Z,101536.50
2023-04-15T10:46:40.102Z,101536.50
2023-04-15T10:49:14.484Z,101540.88
2023-04-15T10:51:52.849Z,101547.94
2023-04-15T10:54:29.346Z,101545.72
2023-04-15T10:57:01.949Z,101550.59
2023-04-15T10:59:32.572Z,101547.81
2023-04-15T11:02:04.397Z,101547.28
2023-04-15T11:04:54.193Z,101551.66
2023-04-15T11:08:02.538Z,101548.97
2023-04-15T11:10:28.898Z,101559.88
2023-04-15T11:12:59.454Z,101553.03
2023-04-15T11:15:34.934Z,101567.50
2023-04-15T11:18:19.759Z,101566.94
2023-04-15T11:20:55.504Z,101560.13
2023-04-15T11:23:39.991Z,101566.97
2023-04-15T11:26:12.198Z,101570.56
2023-04-15T11:28:41.424Z,101566.22
2023-04-15T11:31:16.416Z,101561.59
2023-04-15T11:33:59.878Z,101566.31
2023-04-15T11:36:27.821Z,101567.41
2023-04-15T11:38:54.561Z,101572.56
2023-04-15T11:41:22.502Z,101569.03
2023-04-15T11:43:49.751Z,101567.41
2023-04-15T11:46:16.694Z,101572.56
2023-04-15T11:48:45.279Z,101573.34
2023-04-15T11:51:12.816Z,101576.06
2023-04-15T11:53:41.541Z,101576.91
2023-04-15T11:56:10.123Z,101575.56
2023-04-15T11:58:44.798Z,101584.28
2023-04-15T12:01:11.860Z,101589.47
2023-04-15T12:03:57.296Z,101596.56
2023-04-15T12:06:25.624Z,101593.81
2023-04-15T12:08:59.282Z,101596.81
2023-04-15T12:11:49.400Z,101598.75
2023-04-15T12:14:15.726Z,101599.28
2023-04-15T12:16:49.501Z,101598.75
2023-04-15T12:19:27.560Z,101605.53
2023-04-15T12:22:03.279Z,101614.56
2023-04-15T12:24:34.396Z,101612.63
2023-04-15T12:27:06.151Z,101620.25
2023-04-15T12:29:34.532Z,101627.09
2023-04-15T12:32:15.155Z,101627.09
2023-04-15T12:34:45.151Z,101626.00
2023-04-15T12:37:13.733Z,101637.47
2023-04-15T12:39:42.802Z,101640.19
2023-04-15T12:42:10.831Z,101630.91
2023-04-15T12:44:39.485Z,101647.28
2023-04-15T12:47:07.793Z,101643.75
2023-04-15T12:49:36.271Z,101653.81
2023-04-15T12:52:13.570Z,101652.72
2023-04-15T12:54:40.023Z,101649.44
2023-04-15T12:57:10.627Z,101660.91
2023-04-15T12:59:37.478Z,101652.19
2023-04-15T13:02:11.013Z,101671.53
2023-04-15T13:04:37.544Z,101662.25
2023-04-15T13:07:04.154Z,101677.22
2023-04-15T13:09:32.414Z,101673.41
2023-04-15T13:11:59.218Z,101674.78
2023-04-15T13:14:25.681Z,101687.50
2023-04-15T13:17:04.134Z,101687.72
2023-04-15T13:19:32.098Z,101695.06
2023-04-15T13:22:02.566Z,101703.75
2023-04-15T13:24:28.942Z,101698.22
2023-04-15T13:26:55.918Z,101709.09
2023-04-15T13:29:25.734Z,101704.47
2023-04-15T13:31:56.752Z,101700.66
2023-04-15T13:34:23.254Z,101711.13
2023-04-15T13:36:50.894Z,101708.88
2023-04-15T13:39:17.274Z,101715.28
2023-04-15T13:41:43.789Z,101718.81
2023-04-15T13:44:12.649Z,101721.97
2023-04-15T13:46:42.510Z,101730.28
2023-04-15T13:49:15.357Z,101727.66
2023-04-15T13:51:42.355Z,101740.50
2023-04-15T13:54:08.854Z,101735.41
2023-04-15T13:56:46.443Z,101743.00
2023-04-15T13:59:26.106Z,101747.38
2023-04-15T14:01:58.942Z,101736.63
2023-04-15T14:04:25.419Z,101746.88
2023-04-15T14:07:05.324Z,101744.22
2023-04-15T14:09:31.899Z,101740.22
2023-04-15T14:11:59.964Z,101757.72
2023-04-15T14:14:30.557Z,101758.19
2023-04-15T14:16:57.140Z,101769.31
2023-04-15T14:19:24.290Z,101765.88
2023-04-15T14:21:50.944Z,101772.91
2023-04-15T14:24:25.582Z,101778.63
2023-04-15T14:26:54.092Z,101782.09
2023-04-15T14:29:20.636Z,101780.06
2023-04-15T14:32:11.197Z,101788.72
2023-04-15T14:34:35.284Z,101801.72
2023-04-15T14:37:02.937Z,101801.06
2023-04-15T14:39:30.845Z,101795.13
2023-04-15T14:42:23.289Z,101800.56
2023-04-15T14:44:50.590Z,101803.19
2023-04-15T14:47:21.200Z,101808.28
2023-04-15T14:50:04.443Z,101812.16
2023-04-15T14:52:55.941Z,101813.03
2023-04-15T14:55:37.788Z,101815.00
2023-04-15T14:58:21.647Z,101823.22
2023-04-15T15:00:49.248Z,101834.41
2023-04-15T15:03:18.952Z,101842.78
2023-04-15T15:05:47.030Z,101847.66
2023-04-15T15:08:20.983Z,101840.00
2023-04-15T15:10:49.049Z,101842.13
2023-04-15T15:13:17.309Z,101848.16
2023-04-15T15:15:44.072Z,101849.22
2023-04-15T15:18:10.839Z,101845.44
2023-04-15T15:20:37.366Z,101860.66
2023-04-15T15:23:03.863Z,101865.50
2023-04-15T15:25:30.367Z,101866.19
2023-04-15T15:27:57.746Z,101864.22
2023-04-15T15:30:24.263Z,101868.81
2023-04-15T15:32:50.871Z,101869.31
2023-04-15T15:35:17.428Z,101869.81
2023-04-15T15:37:45.894Z,101876.56
2023-04-15T15:40:12.822Z,101870.78
2023-04-15T15:42:39.233Z,101878.03
2023-04-15T15:45:07.978Z,101876.63
2023-04-15T15:47:38.534Z,101879.00
2023-04-15T15:50:06.263Z,101877.00
2023-04-15T15:52:34.046Z,101886.47
2023-04-15T15:55:00.883Z,101888.03
2023-04-15T15:57:27.415Z,101889.69
2023-04-15T16:00:04.778Z,101887.19
2023-04-15T16:03:04.187Z,101893.38
2023-04-15T16:05:23.907Z,101896.66
2023-04-15T16:07:53.287Z,101909.38
2023-04-15T16:10:36.061Z,101911.28
2023-04-15T16:13:02.879Z,101916.41
2023-04-15T16:15:30.495Z,101921.16
2023-04-15T16:17:56.978Z,101914.78
2023-04-15T16:20:33.669Z,101931.53
2023-04-15T16:23:13.399Z,101936.34
2023-04-15T16:26:01.784Z,101924.81
2023-04-15T16:28:28.252Z,101942.16
2023-04-15T16:30:56.200Z,101935.66
2023-04-15T16:33:22.620Z,101943.22
2023-04-15T16:35:49.065Z,101942.63
2023-04-15T16:38:40.427Z,101953.94
2023-04-15T16:41:08.021Z,101948.19
2023-04-15T16:43:34.418Z,101945.72
2023-04-15T16:46:00.887Z,101952.78
2023-04-15T16:48:27.358Z,101958.69
2023-04-15T16:50:53.742Z,101961.28
2023-04-15T16:53:50.420Z,101961.75
2023-04-15T16:56:16.962Z,101972.59
2023-04-15T16:58:43.494Z,101968.25
2023-04-15T17:01:10.146Z,101974.75
2023-04-15T17:03:36.986Z,101973.09
2023-04-15T17:06:20.866Z,101973.59
2023-04-15T17:08:47.306Z,101971.09
2023-04-15T17:11:17.981Z,101969.13
2023-04-15T17:13:44.341Z,101971.72
2023-04-15T17:16:10.927Z,101991.38
2023-04-15T17:18:38.399Z,101981.00
2023-04-15T17:21:05.195Z,101979.34
2023-04-15T17:23:32.000Z,101991.25
2023-04-15T17:25:58.390Z,101983.59
2023-04-15T17:28:24.778Z,101995.50
2023-04-15T17:30:51.281Z,102008.22
2023-04-15T17:34:00.169Z,102000.56
2023-04-15T17:36:04.627Z,102004.94
2023-04-15T17:38:31.230Z,102000.44
2023-04-15T17:40:57.627Z,102011.88
2023-04-15T17:43:23.999Z,102007.53
2023-04-15T17:45:51.078Z,102012.09
2023-04-15T17:48:17.485Z,102007.53
2023-04-15T17:50:44.117Z,102006.69
2023-04-15T17:53:10.527Z,102020.47
2023-04-15T17:55:36.985Z,102024.25
2023-04-15T17:58:03.463Z,102033.44
2023-04-15T18:00:29.814Z,102032.59
2023-04-15T18:02:56.398Z,102032.84
2023-04-15T18:05:23.089Z,102036.00
2023-04-15T18:07:52.111Z,102042.22
2023-04-15T18:10:18.737Z,102037.53
2023-04-15T18:12:45.247Z,102049.41
2023-04-15T18:15:11.833Z,102045.06
2023-04-15T18:17:38.326Z,102046.59
2023-04-15T18:20:05.137Z,102044.94
2023-04-15T18:22:31.528Z,102047.06
2023-04-15T18:25:03.903Z,102052.47
2023-04-15T18:27:32.204Z,102058.94
2023-04-15T18:29:58.745Z,102052.94
2023-04-15T18:32:25.480Z,102060.00
2023-04-15T18:34:51.857Z,102062.09
2023-04-15T18:37:18.245Z,102063.16
2023-04-15T18:39:44.664Z,102070.69
2023-04-15T18:42:12.977Z,102059.28
2023-04-15T18:44:39.332Z,102070.09
2023-04-15T18:47:05.852Z,102070.09
2023-04-15T18:49:33.252Z,102076.81
2023-04-15T18:51:59.714Z,102078.47
2023-04-15T18:54:26.087Z,102087.66
2023-04-15T18:56:52.507Z,102087.25
2023-04-15T18:59:29.573Z,102089.38
2023-04-15T19:01:57.705Z,102089.84
2023-04-15T19:04:24.253Z,102098.19
2023-04-15T19:06:51.140Z,102102.78
2023-04-15T19:09:17.602Z,102105.94
2023-04-15T19:11:43.998Z,102111.59
2023-04-15T19:14:11.270Z,102107.44
2023-04-15T19:16:37.680Z,102106.19
2023-04-15T19:19:04.479Z,102102.88
2023-04-15T19:21:31.887Z,102102.50
2023-04-15T19:24:09.850Z,102105.44
2023-04-15T19:26:36.792Z,102104.59
2023-04-15T19:29:03.406Z,102106.25
2023-04-15T19:31:30.081Z,102111.22
2023-04-15T19:33:56.786Z,102119.31
2023-04-15T19:36:23.296Z,102117.53
2023-04-15T19:39:09.279Z,102117.53
2023-04-15T19:41:36.697Z,102115.88
2023-04-15T19:44:04.452Z,102124.25
2023-04-15T19:46:31.050Z,102126.34
2023-04-15T19:48:57.653Z,102123.03
2023-04-15T19:51:24.958Z,102127.03
2023-04-15T19:53:53.861Z,102127.03
2023-04-15T19:56:20.755Z,102123.50
2023-04-15T19:58:52.594Z,102127.84
2023-04-15T20:01:20.254Z,102136.78
2023-04-15T20:03:47.237Z,102140.56
2023-04-15T20:06:16.672Z,102140.56
2023-04-15T20:08:43.076Z,102141.03
2023-04-15T20:11:10.242Z,102141.84
2023-04-15T20:13:36.759Z,102138.91
2023-04-15T20:16:03.368Z,102140.56
2023-04-15T20:18:29.851Z,102134.69
2023-04-15T20:20:56.227Z,102135.16
2023-04-15T20:23:22.672Z,102136.22
2023-04-15T20:25:49.132Z,102139.72
2023-04-15T20:28:17.929Z,102135.16
2023-04-15T20:30:44.574Z,102145.16
2023-04-15T20:33:11.132Z,102148.53
2023-04-15T20:35:37.540Z,102150.56
2023-04-15T20:38:04.542Z,102147.41
2023-04-15T20:40:33.631Z,102149.06
2023-04-15T20:43:00.530Z,102145.75
2023-04-15T20:45:26.933Z,102144.69
2023-04-15T20:47:55.163Z,102141.97
2023-04-15T20:50:21.676Z,102144.91
2023-04-15T20:52:48.048Z,102147.16
2023-04-15T20:55:14.507Z,102150.91
2023-04-15T20:57:50.121Z,102154.66
2023-04-15T21:00:16.727Z,102150.91
2023-04-15T21:02:43.195Z,102151.16
2023-04-15T21:05:09.801Z,102151.16
2023-04-15T21:07:36.222Z,102163.03
2023-04-15T21:10:15.922Z,102155.16
2023-04-15T21:12:42.541Z,102159.53
2023-04-15T21:15:16.897Z,102156.81
2023-04-15T21:17:44.340Z,102172.22
2023-04-15T21:20:11.427Z,102169.25
2023-04-15T21:22:37.814Z,102167.63
2023-04-15T21:25:04.549Z,102167.63
2023-04-15T21:27:30.953Z,102163.84
2023-04-15T21:29:57.393Z,102169.25
2023-04-15T21:32:23.808Z,102166.56
2023-04-15T21:34:50.232Z,102178.47
2023-04-15T21:37:16.602Z,102172.44
2023-04-15T21:39:42.970Z,102173.94
2023-04-15T21:42:09.410Z,102166.03
2023-04-15T21:44:35.789Z,102173.56
2023-04-15T21:47:02.420Z,102173.78
2023-04-15T21:49:29.150Z,102165.69
2023-04-15T21:51:59.240Z,102168.16
2023-04-15T21:54:25.707Z,102165.22
2023-04-15T21:56:52.325Z,102181.22
2023-04-15T21:59:18.680Z,102183.13
2023-04-15T22:01:45.519Z,102187.69
2023-04-15T22:04:19.259Z,102186.44
2023-04-15T22:06:46.398Z,102189.13
2023-04-15T22:09:14.335Z,102201.00
2023-04-15T22:11:41.327Z,102191.00
2023-04-15T22:14:07.757Z,102198.91
2023-04-15T22:16:34.142Z,102193.69
2023-04-15T22:19:00.562Z,102195.59
2023-04-15T22:21:27.036Z,102200.16
2023-04-15T22:24:33.237Z,102188.53
2023-04-15T22:26:39.971Z,102191.84
2023-04-15T22:29:06.677Z,102200.16
2023-04-15T22:31:33.337Z,102198.31
2023-04-15T22:33:59.723Z,102199.13
2023-04-15T22:36:26.489Z,102206.41
2023-04-15T22:38:52.955Z,102208.69
2023-04-15T22:41:19.313Z,102211.81
2023-04-15T22:43:46.434Z,102213.47
2023-04-15T22:46:13.677Z,102214.09
2023-04-15T22:48:40.453Z,102205.97
2023-04-15T22:51:06.838Z,102210.53
2023-04-15T22:53:33.331Z,102203.88
2023-04-15T22:55:59.707Z,102205.53
2023-04-15T22:58:26.064Z,102206.34
2023-04-15T23:00:52.520Z,102215.25
2023-04-15T23:03:19.086Z,102222.31
2023-04-15T23:05:46.189Z,102214.69
2023-04-15T23:08:12.654Z,102224.47
2023-04-15T23:10:40.129Z,102221.75
2023-04-15T23:13:06.582Z,102229.63
2023-04-15T23:15:33.071Z,102225.88
2023-04-15T23:18:00.508Z,102225.03
2023-04-15T23:20:26.916Z,102232.59
2023-04-15T23:22:53.319Z,102234.81
2023-04-15T23:25:22.184Z,102233.16
2023-04-15T23:27:48.580Z,102239.63
2023-04-15T23:30:15.076Z,102241.28
2023-04-15T23:32:41.530Z,102242.13
2023-04-15T23:35:08.598Z,102242.94
2023-04-15T23:37:35.035Z,102244.56
2023-04-15T23:40:01.412Z,102240.81
2023-04-15T23:42:27.812Z,102243.97
2023-04-15T23:44:54.311Z,102241.28
2023-04-15T23:47:21.495Z,102248.81
2023-04-15T23:49:47.878Z,102250.44
2023-04-15T23:52:14.552Z,102252.56
2023-04-15T23:54:41.001Z,102248.81
2023-04-15T23:57:07.459Z,102253.38
2023-04-15T23:59:33.888Z,102248.22
